Scott Turecamo — WDE6822 — position and weather

sailwx.info

Track history (hours):
 
Tides and Currents Weather Stations Pressure Air Temp Water Temp Dewpoint Dewpoint Depression Visibility Wind Speed Wind Dir Waves Ship Positions

Scott Turecamo

Owner: Moran Towing Corp., New Canaan, CT. More information available from US FCC via Universal Licensing System and Coast Guard Vessel Documentation Center.

Last reported at 2018-May-22 19:30 UTC. Time now 2018-May-22 19:38 UTC.
Position N 40°39' W 074°03'.

Length 156 m.

MMSI: 368009000.

Date/timePositionNaut miles runAvg speedWind from/ knotsBaromVisibWave heightAir tempDewpointWater temp
2018-May-22 19:30N 40°39' W 074°03'1 2.2
2018-May-22 18:58N 40°40' W 074°02'0 0.0
2018-May-22 18:28N 40°40' W 074°02'0 0.0
2018-May-22 17:58N 40°40' W 074°02'0 0.1
2018-May-22 17:28N 40°40' W 074°02'0 0.1
2018-May-22 16:58N 40°40' W 074°02'0 0.2
2018-May-22 16:28N 40°40' W 074°02'0 0.1
2018-May-22 15:58N 40°40' W 074°02'0 0.0
2018-May-22 15:28N 40°40' W 074°02'0 0.0
2018-May-22 14:58N 40°40' W 074°02'0 0.0
2018-May-22 14:28N 40°40' W 074°02'0 0.0
2018-May-22 13:58N 40°40' W 074°02'0 0.0
2018-May-22 13:28N 40°40' W 074°02'0 0.0
2018-May-22 12:58N 40°40' W 074°02'0 0.0
2018-May-22 12:28N 40°40' W 074°02'0 0.0
2018-May-22 11:58N 40°40' W 074°02'0 0.0
2018-May-22 11:28N 40°40' W 074°02'0 0.0
2018-May-22 10:58N 40°40' W 074°02'0 0.0
2018-May-22 10:28N 40°40' W 074°02'0 0.0
2018-May-22 09:58N 40°40' W 074°02'0 0.0
2018-May-22 09:28N 40°40' W 074°02'0 0.2
2018-May-22 08:58N 40°40' W 074°02'0 0.2
2018-May-22 08:28N 40°40' W 074°02'0 0.1
2018-May-22 07:58N 40°40' W 074°02'0 0.0
2018-May-22 07:28N 40°40' W 074°02'0 0.0
2018-May-22 06:58N 40°40' W 074°02'0 0.0
2018-May-22 06:28N 40°40' W 074°02'0 0.0
2018-May-22 05:58N 40°40' W 074°02'0 0.0
2018-May-22 05:28N 40°40' W 074°02'0 0.0
2018-May-22 04:58N 40°40' W 074°02'0 0.0
2018-May-22 04:28N 40°40' W 074°02'0 0.2
2018-May-22 03:58N 40°40' W 074°02'0 0.1
2018-May-22 03:28N 40°40' W 074°02'0 0.1
2018-May-22 02:58N 40°40' W 074°02'0 0.1
2018-May-22 02:25N 40°40' W 074°02'0 0.0
2018-May-22 01:58N 40°40' W 074°02'4 8.8
2018-May-22 01:30N 40°39' W 074°07'0 0.5
2018-May-22 00:56N 40°38' W 074°08'0 0.0
2018-May-22 00:29N 40°38' W 074°08'0 0.0
2018-May-21 23:59N 40°38' W 074°08'0 0.0
2018-May-21 23:29N 40°38' W 074°08'0 0.0
2018-May-21 22:59N 40°38' W 074°08'1 1.3
2018-May-21 22:30N 40°39' W 074°07'4 7.1
2018-May-21 21:58N 40°40' W 074°02'0 0.0
2018-May-21 21:28N 40°40' W 074°02'0 0.2
2018-May-21 20:58N 40°40' W 074°02'0 0.2
2018-May-21 20:28N 40°40' W 074°02'0 0.0
2018-May-21 19:58N 40°40' W 074°02'0 0.0
2018-May-21 19:28N 40°40' W 074°02'0 0.0
2018-May-21 18:58N 40°40' W 074°02'0 0.0
2018-May-21 18:28N 40°40' W 074°02'0 0.0
2018-May-21 17:58N 40°40' W 074°02'0 0.0
2018-May-21 17:28N 40°40' W 074°02'0 0.0
2018-May-21 16:58N 40°40' W 074°02'0 0.1
2018-May-21 16:28N 40°40' W 074°02'0 0.2
2018-May-21 15:58N 40°40' W 074°02'0 0.0
2018-May-21 15:28N 40°40' W 074°02'0 0.0
2018-May-21 14:58N 40°40' W 074°02'0 0.0
2018-May-21 14:28N 40°40' W 074°02'0 0.0
2018-May-21 13:58N 40°40' W 074°02'0 0.0
2018-May-21 13:28N 40°40' W 074°02'0 0.0
2018-May-21 12:58N 40°40' W 074°02'0 0.0
2018-May-21 12:28N 40°40' W 074°02'0 0.0
2018-May-21 11:58N 40°40' W 074°02'0 0.0
2018-May-21 11:28N 40°40' W 074°02'0 0.0
2018-May-21 10:58N 40°40' W 074°02'0 0.0
2018-May-21 10:28N 40°40' W 074°02'0 0.0
2018-May-21 09:58N 40°40' W 074°02'0 0.0
2018-May-21 09:28N 40°40' W 074°02'0 0.0
2018-May-21 08:58N 40°40' W 074°02'0 0.0
2018-May-21 08:28N 40°40' W 074°02'0 0.1
2018-May-21 07:58N 40°40' W 074°02'0 0.2
2018-May-21 07:28N 40°40' W 074°02'0 0.1
2018-May-21 06:58N 40°40' W 074°02'0 0.0
2018-May-21 06:31N 40°40' W 074°02'0 0.0
2018-May-21 06:01N 40°40' W 074°02'0 0.0
2018-May-21 05:31N 40°40' W 074°02'0 0.0
2018-May-21 05:00N 40°40' W 074°02'0 0.0
2018-May-21 04:30N 40°40' W 074°02'0 0.0
2018-May-21 04:00N 40°40' W 074°02'0 0.1
2018-May-21 03:30N 40°40' W 074°02'0 0.3
2018-May-21 03:00N 40°40' W 074°02'0 0.0
2018-May-21 02:30N 40°40' W 074°02'0 0.1
2018-May-21 02:00N 40°40' W 074°02'0 0.0
2018-May-21 01:30N 40°40' W 074°02'0 0.0
2018-May-21 01:00N 40°40' W 074°02'0 0.0
2018-May-21 00:30N 40°40' W 074°02'0 0.0
2018-May-21 00:00N 40°40' W 074°02'0 0.0
2018-May-20 23:30N 40°40' W 074°02'0 0.0
2018-May-20 22:57N 40°40' W 074°02'0 0.0
2018-May-20 22:30N 40°40' W 074°02'0 0.0
2018-May-20 22:00N 40°40' W 074°02'0 0.0
2018-May-20 21:30N 40°40' W 074°02'0 0.0
2018-May-20 21:00N 40°40' W 074°02'0 0.0
2018-May-20 20:30N 40°40' W 074°02'0 0.1
2018-May-20 20:00N 40°40' W 074°02'0 0.1
2018-May-20 19:30N 40°40' W 074°02'0 0.1
2018-May-20 19:00N 40°40' W 074°02'0 0.1
2018-May-20 18:30N 40°40' W 074°02'0 0.0
2018-May-20 18:00N 40°40' W 074°02'0 0.0
2018-May-20 17:30N 40°40' W 074°02'0 0.1
2018-May-20 17:00N 40°40' W 074°02'0 0.0
2018-May-20 16:30N 40°40' W 074°02'0 0.0
2018-May-20 15:57N 40°40' W 074°02'0 0.1
2018-May-20 15:30N 40°40' W 074°02'0 0.1
2018-May-20 15:00N 40°40' W 074°02'0 0.2
2018-May-20 14:30N 40°40' W 074°02'0 0.0
2018-May-20 14:00N 40°40' W 074°02'0 0.0
2018-May-20 13:30N 40°40' W 074°02'0 0.0
2018-May-20 12:57N 40°40' W 074°02'1 2.8
2018-May-20 12:30N 40°39' W 074°04'7 0.4
2018-May-19 18:03N 40°38' W 074°12'0 0.3
2018-May-19 18:00N 40°38' W 074°12'2 3.9
2018-May-19 17:30N 40°39' W 074°10'3 6.5
2018-May-19 17:00N 40°39' W 074°06'3 5.6
2018-May-19 16:30N 40°39' W 074°02'0 0.1
2018-May-19 15:58N 40°39' W 074°03'0 0.1
2018-May-19 15:28N 40°40' W 074°02'0 0.1
2018-May-19 14:58N 40°39' W 074°03'0 0.0
2018-May-19 14:28N 40°39' W 074°03'0 0.1
2018-May-19 13:55N 40°39' W 074°03'0 0.1
2018-May-19 13:28N 40°39' W 074°03'0 0.1
2018-May-19 12:58N 40°39' W 074°03'0 0.0
2018-May-19 12:28N 40°39' W 074°03'0 0.1
2018-May-19 11:58N 40°39' W 074°03'0 0.0
2018-May-19 11:28N 40°39' W 074°03'0 0.0
2018-May-19 10:58N 40°39' W 074°03'0 0.0
2018-May-19 10:28N 40°39' W 074°03'0 0.0
2018-May-19 09:58N 40°39' W 074°03'0 0.0
2018-May-19 09:28N 40°39' W 074°03'0 0.0
2018-May-19 08:58N 40°39' W 074°03'0 0.0
2018-May-19 08:28N 40°39' W 074°03'0 0.0
2018-May-19 07:58N 40°39' W 074°03'0 0.0
2018-May-19 07:28N 40°39' W 074°03'0 0.0
2018-May-19 06:58N 40°39' W 074°03'0 0.0
2018-May-19 06:28N 40°39' W 074°03'0 0.1
2018-May-19 05:58N 40°39' W 074°03'0 0.2
2018-May-19 05:28N 40°39' W 074°03'0 0.0
2018-May-19 04:58N 40°39' W 074°03'0 0.1
2018-May-19 04:28N 40°40' W 074°02'0 0.0
2018-May-19 03:58N 40°40' W 074°03'0 0.0
2018-May-19 03:28N 40°40' W 074°03'0 0.1
2018-May-19 02:58N 40°39' W 074°02'0 0.0
2018-May-19 02:28N 40°40' W 074°02'0 0.0
2018-May-19 01:58N 40°40' W 074°02'0 0.0
2018-May-19 01:28N 40°40' W 074°02'0 0.0
2018-May-19 00:58N 40°40' W 074°02'0 0.1
2018-May-19 00:28N 40°39' W 074°03'0 0.2
2018-May-18 23:58N 40°39' W 074°03'0 0.1
2018-May-18 23:28N 40°39' W 074°03'0 0.1
2018-May-18 22:58N 40°39' W 074°03'0 0.0
2018-May-18 22:28N 40°39' W 074°03'0 0.0
2018-May-18 21:58N 40°39' W 074°03'0 0.0
2018-May-18 21:28N 40°39' W 074°03'0 0.0
2018-May-18 21:01N 40°39' W 074°03'0 0.0
2018-May-18 20:30N 40°39' W 074°03'0 0.0
2018-May-18 20:00N 40°39' W 074°03'0 0.1
2018-May-18 19:30N 40°39' W 074°03'0 0.0
2018-May-18 19:00N 40°39' W 074°03'0 0.0
2018-May-18 18:30N 40°39' W 074°03'0 0.0
2018-May-18 18:00N 40°39' W 074°03'0 0.0
2018-May-18 17:30N 40°39' W 074°03'0 0.1
2018-May-18 17:00N 40°39' W 074°03'0 0.0
2018-May-18 16:30N 40°39' W 074°03'0 0.1
2018-May-18 16:00N 40°39' W 074°03'0 0.1
2018-May-18 15:30N 40°39' W 074°03'0 0.0
2018-May-18 15:00N 40°39' W 074°03'0 0.1
2018-May-18 14:30N 40°39' W 074°03'0 0.1
2018-May-18 14:00N 40°39' W 074°03'0 0.0
2018-May-18 13:30N 40°39' W 074°03'0 0.0
2018-May-18 13:00N 40°39' W 074°03'0 0.0
2018-May-18 12:30N 40°39' W 074°03'0 0.0
2018-May-18 12:00N 40°39' W 074°03'0 0.1
2018-May-18 11:30N 40°39' W 074°03'5 0.8
2018-May-18 05:32N 40°35' W 074°01'0 0.0
2018-May-18 05:26N 40°35' W 074°01'0 0.0
2018-May-18 04:56N 40°35' W 074°01'0 0.0
2018-May-18 00:05N 40°35' W 074°01'0 0.1
2018-May-17 23:56N 40°35' W 074°01'0 0.0
2018-May-17 22:02N 40°35' W 074°01'0 0.1
2018-May-17 21:47N 40°35' W 074°01'0 0.0
2018-May-17 14:17N 40°35' W 074°01'0 0.1
2018-May-17 13:56N 40°35' W 074°01'0 0.0
2018-May-17 13:14N 40°35' W 074°01'0 0.0
2018-May-17 09:15N 40°35' W 074°01'0 0.0
2018-May-17 08:50N 40°35' W 074°01'0 0.0
2018-May-17 08:16N 40°35' W 074°01'0 0.0
2018-May-17 04:44N 40°35' W 074°01'0 0.1
2018-May-17 04:27N 40°35' W 074°01'0 0.0
2018-May-17 04:00N 40°35' W 074°01'0 0.0
2018-May-17 01:04N 40°35' W 074°01'0 0.4
2018-May-17 01:00N 40°35' W 074°01'3 5.4
2018-May-17 00:30N 40°37' W 074°03'2 4.9
2018-May-17 00:00N 40°39' W 074°05'0 0.0
2018-May-16 23:25N 40°39' W 074°05'0 0.0
2018-May-16 22:58N 40°39' W 074°05'0 0.0
2018-May-16 22:28N 40°39' W 074°05'0 0.0
2018-May-16 21:55N 40°39' W 074°05'0 0.0
2018-May-16 21:28N 40°39' W 074°05'0 0.0
2018-May-16 20:55N 40°39' W 074°05'0 0.0
2018-May-16 20:28N 40°39' W 074°05'0 0.0
2018-May-16 19:55N 40°39' W 074°05'0 0.0
2018-May-16 19:28N 40°39' W 074°05'0 0.0
2018-May-16 18:58N 40°39' W 074°05'0 0.0
2018-May-16 18:28N 40°39' W 074°05'0 0.0
2018-May-16 17:58N 40°39' W 074°05'0 0.0
2018-May-16 17:28N 40°39' W 074°05'0 0.0
2018-May-16 16:58N 40°39' W 074°05'0 0.0
2018-May-16 16:28N 40°39' W 074°05'0 0.0
2018-May-16 15:58N 40°39' W 074°05'0 0.0
2018-May-16 15:28N 40°39' W 074°05'0 0.0
2018-May-16 14:58N 40°39' W 074°05'0 0.0
2018-May-16 14:28N 40°39' W 074°05'0 0.0
2018-May-16 14:01N 40°39' W 074°05'0 0.0
2018-May-16 13:31N 40°39' W 074°05'0 0.0
2018-May-16 13:01N 40°39' W 074°05'0 0.0
2018-May-16 12:30N 40°39' W 074°05'0 0.0
2018-May-16 12:00N 40°39' W 074°05'0 0.0
2018-May-16 11:30N 40°39' W 074°05'0 0.0
2018-May-16 11:00N 40°39' W 074°05'0 0.0
2018-May-16 10:30N 40°39' W 074°05'0 0.0
2018-May-16 10:00N 40°39' W 074°05'0 0.0
2018-May-16 09:30N 40°39' W 074°05'0 0.0
2018-May-16 09:00N 40°39' W 074°05'0 0.0
2018-May-16 08:30N 40°39' W 074°05'0 0.4
2018-May-16 08:01N 40°39' W 074°06'0 0.4
2018-May-16 07:09N 40°39' W 074°06'0 0.0
2018-May-16 06:57N 40°39' W 074°06'0 0.0
2018-May-16 06:15N 40°39' W 074°06'0 0.0
2018-May-16 05:57N 40°39' W 074°06'0 0.0
2018-May-16 05:27N 40°39' W 074°06'0 0.0
2018-May-16 04:57N 40°39' W 074°06'0 0.0
2018-May-16 04:24N 40°39' W 074°06'0 0.0
2018-May-16 03:36N 40°39' W 074°06'0 0.0
2018-May-16 03:27N 40°39' W 074°06'0 0.0
2018-May-16 02:57N 40°39' W 074°06'0 0.0
2018-May-16 02:27N 40°39' W 074°06'0 0.0
2018-May-16 02:00N 40°39' W 074°06'0 0.0
2018-May-16 01:21N 40°39' W 074°06'0 0.0
2018-May-16 00:57N 40°39' W 074°06'0 0.0
2018-May-16 00:30N 40°39' W 074°06'0 0.0
2018-May-15 23:57N 40°39' W 074°06'0 0.0
2018-May-15 23:21N 40°39' W 074°06'0 0.0
2018-May-15 23:00N 40°39' W 074°06'0 0.0
2018-May-15 22:24N 40°39' W 074°06'0 0.0
2018-May-15 22:00N 40°39' W 074°06'0 0.0
2018-May-15 21:27N 40°39' W 074°06'0 0.0
2018-May-15 20:48N 40°39' W 074°06'0 0.0
2018-May-15 20:24N 40°39' W 074°06'0 0.0
2018-May-15 19:57N 40°39' W 074°06'0 0.0
2018-May-15 19:21N 40°39' W 074°06'0 0.0
2018-May-15 18:57N 40°39' W 074°06'0 0.0
2018-May-15 18:27N 40°39' W 074°06'0 0.0
2018-May-15 17:57N 40°39' W 074°06'0 0.0
2018-May-15 17:27N 40°39' W 074°06'0 0.0
2018-May-15 16:51N 40°39' W 074°06'0 0.0
2018-May-15 16:27N 40°39' W 074°06'0 0.0
2018-May-15 15:54N 40°39' W 074°06'0 0.0
2018-May-15 15:27N 40°39' W 074°06'0 0.0
2018-May-15 15:00N 40°39' W 074°06'1 2.6
2018-May-15 14:30N 40°39' W 074°04'1 2.5
2018-May-15 14:00N 40°39' W 074°03'0 0.0
2018-May-15 13:29N 40°39' W 074°03'0 0.0
2018-May-15 12:59N 40°39' W 074°03'0 0.1
2018-May-15 12:29N 40°39' W 074°03'0 0.0
2018-May-15 11:59N 40°39' W 074°03'0 0.0
2018-May-15 11:29N 40°39' W 074°03'0 0.1
2018-May-15 10:59N 40°39' W 074°03'0 0.0
2018-May-15 10:29N 40°39' W 074°03'0 0.2
2018-May-15 09:59N 40°39' W 074°03'0 0.2
2018-May-15 09:29N 40°39' W 074°03'0 0.1
2018-May-15 08:59N 40°39' W 074°03'0 0.1
2018-May-15 08:29N 40°39' W 074°03'0 0.0
2018-May-15 07:59N 40°39' W 074°03'0 0.0
2018-May-15 07:29N 40°39' W 074°03'0 0.0
2018-May-15 06:59N 40°39' W 074°03'0 0.0
2018-May-15 06:29N 40°39' W 074°03'0 0.1
2018-May-15 05:59N 40°39' W 074°03'0 0.0
2018-May-15 05:29N 40°39' W 074°03'0 0.0
2018-May-15 04:59N 40°39' W 074°03'0 0.0
2018-May-15 04:29N 40°39' W 074°03'0 0.0
2018-May-15 03:59N 40°39' W 074°03'0 0.3
2018-May-15 03:26N 40°39' W 074°03'0 0.2
2018-May-15 02:59N 40°39' W 074°03'0 0.0
2018-May-15 02:29N 40°39' W 074°03'0 0.0
2018-May-15 01:59N 40°39' W 074°03'0 0.0
2018-May-15 01:29N 40°39' W 074°03'0 0.0
2018-May-15 00:59N 40°39' W 074°03'0 0.0
2018-May-15 00:28N 40°39' W 074°03'0 0.0
2018-May-14 23:58N 40°39' W 074°03'0 0.0
2018-May-14 23:28N 40°39' W 074°03'0 0.1
2018-May-14 22:58N 40°39' W 074°03'0 0.0
2018-May-14 22:28N 40°39' W 074°03'0 0.0
2018-May-14 21:58N 40°39' W 074°03'0 0.1
2018-May-14 21:28N 40°39' W 074°03'0 0.2
2018-May-14 20:58N 40°39' W 074°03'0 0.2
2018-May-14 20:25N 40°39' W 074°03'0 0.1
2018-May-14 19:58N 40°39' W 074°03'0 0.0
2018-May-14 19:28N 40°39' W 074°03'0 0.0
2018-May-14 18:58N 40°39' W 074°03'0 0.0
2018-May-14 18:28N 40°39' W 074°03'0 0.0
2018-May-14 17:58N 40°39' W 074°03'0 0.1
2018-May-14 17:28N 40°39' W 074°03'0 0.0
2018-May-14 16:55N 40°39' W 074°03'0 0.0
2018-May-14 16:28N 40°39' W 074°03'0 0.1
2018-May-14 15:58N 40°39' W 074°03'0 0.0
2018-May-14 15:28N 40°39' W 074°03'0 0.1
2018-May-14 14:58N 40°39' W 074°03'0 0.2
2018-May-14 14:28N 40°39' W 074°03'0 0.1
2018-May-14 13:58N 40°39' W 074°03'0 0.1
2018-May-14 13:28N 40°39' W 074°03'0 0.0
2018-May-14 12:58N 40°39' W 074°03'0 0.0
2018-May-14 12:28N 40°39' W 074°03'0 0.0
2018-May-14 11:52N 40°39' W 074°03'0 0.0
2018-May-14 11:28N 40°39' W 074°03'0 0.0
2018-May-14 10:58N 40°39' W 074°03'0 0.0
2018-May-14 10:28N 40°39' W 074°03'0 0.0
2018-May-14 09:58N 40°39' W 074°03'0 0.2
2018-May-14 09:25N 40°39' W 074°03'0 0.2
2018-May-14 08:58N 40°39' W 074°03'0 0.0
2018-May-14 08:28N 40°39' W 074°03'0 0.1
2018-May-14 07:58N 40°39' W 074°03'0 0.0
2018-May-14 07:28N 40°39' W 074°03'0 0.0
2018-May-14 06:58N 40°39' W 074°03'0 0.0
2018-May-14 06:28N 40°39' W 074°03'0 0.0
2018-May-14 05:58N 40°39' W 074°03'0 0.0
2018-May-14 05:28N 40°39' W 074°03'0 0.0
2018-May-14 04:58N 40°39' W 074°03'0 0.0
2018-May-14 04:28N 40°39' W 074°03'0 0.1
2018-May-14 03:58N 40°39' W 074°03'0 0.0
2018-May-14 03:28N 40°39' W 074°03'0 0.1
2018-May-14 02:58N 40°39' W 074°03'0 0.3
2018-May-14 02:28N 40°39' W 074°03'0 0.1
2018-May-14 01:58N 40°39' W 074°03'0 0.0
2018-May-14 01:28N 40°39' W 074°03'0 0.0
2018-May-14 00:58N 40°39' W 074°03'0 0.0
2018-May-14 00:29N 40°39' W 074°03'1 1.3
2018-May-14 00:00N 40°39' W 074°03'1 2.5
2018-May-13 23:30N 40°39' W 074°05'0 0.0
2018-May-13 22:59N 40°39' W 074°05'0 0.0
2018-May-13 22:29N 40°39' W 074°05'0 0.0
2018-May-13 21:59N 40°39' W 074°05'0 0.0
2018-May-13 21:20N 40°39' W 074°05'0 0.0
2018-May-13 20:41N 40°39' W 074°05'0 0.0
2018-May-13 19:59N 40°39' W 074°05'0 0.0
2018-May-13 19:20N 40°39' W 074°05'0 0.0
2018-May-13 18:56N 40°39' W 074°05'0 0.0
2018-May-13 18:26N 40°39' W 074°05'0 0.0
2018-May-13 17:59N 40°39' W 074°05'0 0.0
2018-May-13 17:20N 40°39' W 074°05'0 0.0
2018-May-13 16:56N 40°39' W 074°05'0 0.0
2018-May-13 16:23N 40°39' W 074°05'0 0.0
2018-May-13 15:17N 40°39' W 074°05'0 0.0
2018-May-13 14:59N 40°39' W 074°05'0 0.0
2018-May-13 14:29N 40°39' W 074°05'0 0.0
2018-May-13 13:59N 40°39' W 074°05'0 0.0
2018-May-13 13:29N 40°39' W 074°05'0 0.0
2018-May-13 12:59N 40°39' W 074°05'0 0.0
2018-May-13 12:28N 40°39' W 074°05'0 0.0
2018-May-13 11:58N 40°39' W 074°05'0 0.0
2018-May-13 11:28N 40°39' W 074°05'0 0.0
2018-May-13 10:58N 40°39' W 074°05'0 0.0
2018-May-13 10:28N 40°39' W 074°05'0 0.0
2018-May-13 09:58N 40°39' W 074°05'0 0.0
2018-May-13 09:28N 40°39' W 074°05'0 0.0
2018-May-13 07:31N 40°39' W 074°05'0 0.0
2018-May-13 07:07N 40°39' W 074°05'0 0.0
2018-May-13 06:49N 40°39' W 074°05'0 0.0
2018-May-13 06:25N 40°39' W 074°05'0 0.0
2018-May-13 05:25N 40°39' W 074°05'0 0.0
2018-May-13 04:58N 40°39' W 074°05'0 0.0
2018-May-13 04:28N 40°39' W 074°05'0 0.0
2018-May-13 03:58N 40°39' W 074°05'0 0.0
2018-May-13 03:25N 40°39' W 074°05'0 0.0
2018-May-13 02:58N 40°39' W 074°05'0 0.0
2018-May-13 02:16N 40°39' W 074°05'0 0.0
2018-May-13 01:52N 40°39' W 074°05'0 0.0
2018-May-13 01:28N 40°39' W 074°05'0 0.0
2018-May-13 00:58N 40°39' W 074°05'0 0.0
2018-May-13 00:28N 40°39' W 074°05'0 0.0
2018-May-12 23:58N 40°39' W 074°05'0 0.0
2018-May-12 23:28N 40°39' W 074°05'0 0.0
2018-May-12 22:55N 40°39' W 074°05'0 0.0
2018-May-12 22:28N 40°39' W 074°05'0 0.0
2018-May-12 21:34N 40°39' W 074°05'0 0.0
2018-May-12 21:25N 40°39' W 074°05'0 0.0
2018-May-12 20:58N 40°39' W 074°05'0 0.0
2018-May-12 20:25N 40°39' W 074°05'0 0.0
2018-May-12 19:52N 40°39' W 074°05'  
Track history (hours):
 
Tides and Currents Weather Stations Pressure Air Temp Water Temp Dewpoint Dewpoint Depression Visibility Wind Speed Wind Dir Waves Ship Positions

Scott Turecamo

Owner: Moran Towing Corp., New Canaan, CT. More information available from US FCC via Universal Licensing System and Coast Guard Vessel Documentation Center.

Last reported at 2018-May-22 19:30 UTC. Time now 2018-May-22 19:38 UTC.
Position N 40°39' W 074°03'.

Length 156 m.

MMSI: 368009000.

Date/timePositionNaut miles runAvg speedWind from/ knotsBaromVisibWave heightAir tempDewpointWater temp
2018-May-22 19:30N 40°39' W 074°03'1 2.2
2018-May-22 18:58N 40°40' W 074°02'0 0.0
2018-May-22 18:28N 40°40' W 074°02'0 0.0
2018-May-22 17:58N 40°40' W 074°02'0 0.1
2018-May-22 17:28N 40°40' W 074°02'0 0.1
2018-May-22 16:58N 40°40' W 074°02'0 0.2
2018-May-22 16:28N 40°40' W 074°02'0 0.1
2018-May-22 15:58N 40°40' W 074°02'0 0.0
2018-May-22 15:28N 40°40' W 074°02'0 0.0
2018-May-22 14:58N 40°40' W 074°02'0 0.0
2018-May-22 14:28N 40°40' W 074°02'0 0.0
2018-May-22 13:58N 40°40' W 074°02'0 0.0
2018-May-22 13:28N 40°40' W 074°02'0 0.0
2018-May-22 12:58N 40°40' W 074°02'0 0.0
2018-May-22 12:28N 40°40' W 074°02'0 0.0
2018-May-22 11:58N 40°40' W 074°02'0 0.0
2018-May-22 11:28N 40°40' W 074°02'0 0.0
2018-May-22 10:58N 40°40' W 074°02'0 0.0
2018-May-22 10:28N 40°40' W 074°02'0 0.0
2018-May-22 09:58N 40°40' W 074°02'0 0.0
2018-May-22 09:28N 40°40' W 074°02'0 0.2
2018-May-22 08:58N 40°40' W 074°02'0 0.2
2018-May-22 08:28N 40°40' W 074°02'0 0.1
2018-May-22 07:58N 40°40' W 074°02'0 0.0
2018-May-22 07:28N 40°40' W 074°02'0 0.0
2018-May-22 06:58N 40°40' W 074°02'0 0.0
2018-May-22 06:28N 40°40' W 074°02'0 0.0
2018-May-22 05:58N 40°40' W 074°02'0 0.0
2018-May-22 05:28N 40°40' W 074°02'0 0.0
2018-May-22 04:58N 40°40' W 074°02'0 0.0
2018-May-22 04:28N 40°40' W 074°02'0 0.2
2018-May-22 03:58N 40°40' W 074°02'0 0.1
2018-May-22 03:28N 40°40' W 074°02'0 0.1
2018-May-22 02:58N 40°40' W 074°02'0 0.1
2018-May-22 02:25N 40°40' W 074°02'0 0.0
2018-May-22 01:58N 40°40' W 074°02'4 8.8
2018-May-22 01:30N 40°39' W 074°07'0 0.5
2018-May-22 00:56N 40°38' W 074°08'0 0.0
2018-May-22 00:29N 40°38' W 074°08'0 0.0
2018-May-21 23:59N 40°38' W 074°08'0 0.0
2018-May-21 23:29N 40°38' W 074°08'0 0.0
2018-May-21 22:59N 40°38' W 074°08'1 1.3
2018-May-21 22:30N 40°39' W 074°07'4 7.1
2018-May-21 21:58N 40°40' W 074°02'0 0.0
2018-May-21 21:28N 40°40' W 074°02'0 0.2
2018-May-21 20:58N 40°40' W 074°02'0 0.2
2018-May-21 20:28N 40°40' W 074°02'0 0.0
2018-May-21 19:58N 40°40' W 074°02'0 0.0
2018-May-21 19:28N 40°40' W 074°02'0 0.0
2018-May-21 18:58N 40°40' W 074°02'0 0.0
2018-May-21 18:28N 40°40' W 074°02'0 0.0
2018-May-21 17:58N 40°40' W 074°02'0 0.0
2018-May-21 17:28N 40°40' W 074°02'0 0.0
2018-May-21 16:58N 40°40' W 074°02'0 0.1
2018-May-21 16:28N 40°40' W 074°02'0 0.2
2018-May-21 15:58N 40°40' W 074°02'0 0.0
2018-May-21 15:28N 40°40' W 074°02'0 0.0
2018-May-21 14:58N 40°40' W 074°02'0 0.0
2018-May-21 14:28N 40°40' W 074°02'0 0.0
2018-May-21 13:58N 40°40' W 074°02'0 0.0
2018-May-21 13:28N 40°40' W 074°02'0 0.0
2018-May-21 12:58N 40°40' W 074°02'0 0.0
2018-May-21 12:28N 40°40' W 074°02'0 0.0
2018-May-21 11:58N 40°40' W 074°02'0 0.0
2018-May-21 11:28N 40°40' W 074°02'0 0.0
2018-May-21 10:58N 40°40' W 074°02'0 0.0
2018-May-21 10:28N 40°40' W 074°02'0 0.0
2018-May-21 09:58N 40°40' W 074°02'0 0.0
2018-May-21 09:28N 40°40' W 074°02'0 0.0
2018-May-21 08:58N 40°40' W 074°02'0 0.0
2018-May-21 08:28N 40°40' W 074°02'0 0.1
2018-May-21 07:58N 40°40' W 074°02'0 0.2
2018-May-21 07:28N 40°40' W 074°02'0 0.1
2018-May-21 06:58N 40°40' W 074°02'0 0.0
2018-May-21 06:31N 40°40' W 074°02'0 0.0
2018-May-21 06:01N 40°40' W 074°02'0 0.0
2018-May-21 05:31N 40°40' W 074°02'0 0.0
2018-May-21 05:00N 40°40' W 074°02'0 0.0
2018-May-21 04:30N 40°40' W 074°02'0 0.0
2018-May-21 04:00N 40°40' W 074°02'0 0.1
2018-May-21 03:30N 40°40' W 074°02'0 0.3
2018-May-21 03:00N 40°40' W 074°02'0 0.0
2018-May-21 02:30N 40°40' W 074°02'0 0.1
2018-May-21 02:00N 40°40' W 074°02'0 0.0
2018-May-21 01:30N 40°40' W 074°02'0 0.0
2018-May-21 01:00N 40°40' W 074°02'0 0.0
2018-May-21 00:30N 40°40' W 074°02'0 0.0
2018-May-21 00:00N 40°40' W 074°02'0 0.0
2018-May-20 23:30N 40°40' W 074°02'0 0.0
2018-May-20 22:57N 40°40' W 074°02'0 0.0
2018-May-20 22:30N 40°40' W 074°02'0 0.0
2018-May-20 22:00N 40°40' W 074°02'0 0.0
2018-May-20 21:30N 40°40' W 074°02'0 0.0
2018-May-20 21:00N 40°40' W 074°02'0 0.0
2018-May-20 20:30N 40°40' W 074°02'0 0.1
2018-May-20 20:00N 40°40' W 074°02'0 0.1
2018-May-20 19:30N 40°40' W 074°02'0 0.1
2018-May-20 19:00N 40°40' W 074°02'0 0.1
2018-May-20 18:30N 40°40' W 074°02'0 0.0
2018-May-20 18:00N 40°40' W 074°02'0 0.0
2018-May-20 17:30N 40°40' W 074°02'0 0.1
2018-May-20 17:00N 40°40' W 074°02'0 0.0
2018-May-20 16:30N 40°40' W 074°02'0 0.0
2018-May-20 15:57N 40°40' W 074°02'0 0.1
2018-May-20 15:30N 40°40' W 074°02'0 0.1
2018-May-20 15:00N 40°40' W 074°02'0 0.2
2018-May-20 14:30N 40°40' W 074°02'0 0.0
2018-May-20 14:00N 40°40' W 074°02'0 0.0
2018-May-20 13:30N 40°40' W 074°02'0 0.0
2018-May-20 12:57N 40°40' W 074°02'1 2.8
2018-May-20 12:30N 40°39' W 074°04'7 0.4
2018-May-19 18:03N 40°38' W 074°12'0 0.3
2018-May-19 18:00N 40°38' W 074°12'2 3.9
2018-May-19 17:30N 40°39' W 074°10'3 6.5
2018-May-19 17:00N 40°39' W 074°06'3 5.6
2018-May-19 16:30N 40°39' W 074°02'0 0.1
2018-May-19 15:58N 40°39' W 074°03'0 0.1
2018-May-19 15:28N 40°40' W 074°02'0 0.1
2018-May-19 14:58N 40°39' W 074°03'0 0.0
2018-May-19 14:28N 40°39' W 074°03'0 0.1
2018-May-19 13:55N 40°39' W 074°03'0 0.1
2018-May-19 13:28N 40°39' W 074°03'0 0.1
2018-May-19 12:58N 40°39' W 074°03'0 0.0
2018-May-19 12:28N 40°39' W 074°03'0 0.1
2018-May-19 11:58N 40°39' W 074°03'0 0.0
2018-May-19 11:28N 40°39' W 074°03'0 0.0
2018-May-19 10:58N 40°39' W 074°03'0 0.0
2018-May-19 10:28N 40°39' W 074°03'0 0.0
2018-May-19 09:58N 40°39' W 074°03'0 0.0
2018-May-19 09:28N 40°39' W 074°03'0 0.0
2018-May-19 08:58N 40°39' W 074°03'0 0.0
2018-May-19 08:28N 40°39' W 074°03'0 0.0
2018-May-19 07:58N 40°39' W 074°03'0 0.0
2018-May-19 07:28N 40°39' W 074°03'0 0.0
2018-May-19 06:58N 40°39' W 074°03'0 0.0
2018-May-19 06:28N 40°39' W 074°03'0 0.1
2018-May-19 05:58N 40°39' W 074°03'0 0.2
2018-May-19 05:28N 40°39' W 074°03'0 0.0
2018-May-19 04:58N 40°39' W 074°03'0 0.1
2018-May-19 04:28N 40°40' W 074°02'0 0.0
2018-May-19 03:58N 40°40' W 074°03'0 0.0
2018-May-19 03:28N 40°40' W 074°03'0 0.1
2018-May-19 02:58N 40°39' W 074°02'0 0.0
2018-May-19 02:28N 40°40' W 074°02'0 0.0
2018-May-19 01:58N 40°40' W 074°02'0 0.0
2018-May-19 01:28N 40°40' W 074°02'0 0.0
2018-May-19 00:58N 40°40' W 074°02'0 0.1
2018-May-19 00:28N 40°39' W 074°03'0 0.2
2018-May-18 23:58N 40°39' W 074°03'0 0.1
2018-May-18 23:28N 40°39' W 074°03'0 0.1
2018-May-18 22:58N 40°39' W 074°03'0 0.0
2018-May-18 22:28N 40°39' W 074°03'0 0.0
2018-May-18 21:58N 40°39' W 074°03'0 0.0
2018-May-18 21:28N 40°39' W 074°03'0 0.0
2018-May-18 21:01N 40°39' W 074°03'0 0.0
2018-May-18 20:30N 40°39' W 074°03'0 0.0
2018-May-18 20:00N 40°39' W 074°03'0 0.1
2018-May-18 19:30N 40°39' W 074°03'0 0.0
2018-May-18 19:00N 40°39' W 074°03'0 0.0
2018-May-18 18:30N 40°39' W 074°03'0 0.0
2018-May-18 18:00N 40°39' W 074°03'0 0.0
2018-May-18 17:30N 40°39' W 074°03'0 0.1
2018-May-18 17:00N 40°39' W 074°03'0 0.0
2018-May-18 16:30N 40°39' W 074°03'0 0.1
2018-May-18 16:00N 40°39' W 074°03'0 0.1
2018-May-18 15:30N 40°39' W 074°03'0 0.0
2018-May-18 15:00N 40°39' W 074°03'0 0.1
2018-May-18 14:30N 40°39' W 074°03'0 0.1
2018-May-18 14:00N 40°39' W 074°03'0 0.0
2018-May-18 13:30N 40°39' W 074°03'0 0.0
2018-May-18 13:00N 40°39' W 074°03'0 0.0
2018-May-18 12:30N 40°39' W 074°03'0 0.0
2018-May-18 12:00N 40°39' W 074°03'0 0.1
2018-May-18 11:30N 40°39' W 074°03'5 0.8
2018-May-18 05:32N 40°35' W 074°01'0 0.0
2018-May-18 05:26N 40°35' W 074°01'0 0.0
2018-May-18 04:56N 40°35' W 074°01'0 0.0
2018-May-18 00:05N 40°35' W 074°01'0 0.1
2018-May-17 23:56N 40°35' W 074°01'0 0.0
2018-May-17 22:02N 40°35' W 074°01'0 0.1
2018-May-17 21:47N 40°35' W 074°01'0 0.0
2018-May-17 14:17N 40°35' W 074°01'0 0.1
2018-May-17 13:56N 40°35' W 074°01'0 0.0
2018-May-17 13:14N 40°35' W 074°01'0 0.0
2018-May-17 09:15N 40°35' W 074°01'0 0.0
2018-May-17 08:50N 40°35' W 074°01'0 0.0
2018-May-17 08:16N 40°35' W 074°01'0 0.0
2018-May-17 04:44N 40°35' W 074°01'0 0.1
2018-May-17 04:27N 40°35' W 074°01'0 0.0
2018-May-17 04:00N 40°35' W 074°01'0 0.0
2018-May-17 01:04N 40°35' W 074°01'0 0.4
2018-May-17 01:00N 40°35' W 074°01'3 5.4
2018-May-17 00:30N 40°37' W 074°03'2 4.9
2018-May-17 00:00N 40°39' W 074°05'0 0.0
2018-May-16 23:25N 40°39' W 074°05'0 0.0
2018-May-16 22:58N 40°39' W 074°05'0 0.0
2018-May-16 22:28N 40°39' W 074°05'0 0.0
2018-May-16 21:55N 40°39' W 074°05'0 0.0
2018-May-16 21:28N 40°39' W 074°05'0 0.0
2018-May-16 20:55N 40°39' W 074°05'0 0.0
2018-May-16 20:28N 40°39' W 074°05'0 0.0
2018-May-16 19:55N 40°39' W 074°05'0 0.0
2018-May-16 19:28N 40°39' W 074°05'0 0.0
2018-May-16 18:58N 40°39' W 074°05'0 0.0
2018-May-16 18:28N 40°39' W 074°05'0 0.0
2018-May-16 17:58N 40°39' W 074°05'0 0.0
2018-May-16 17:28N 40°39' W 074°05'0 0.0
2018-May-16 16:58N 40°39' W 074°05'0 0.0
2018-May-16 16:28N 40°39' W 074°05'0 0.0
2018-May-16 15:58N 40°39' W 074°05'0 0.0
2018-May-16 15:28N 40°39' W 074°05'0 0.0
2018-May-16 14:58N 40°39' W 074°05'0 0.0
2018-May-16 14:28N 40°39' W 074°05'0 0.0
2018-May-16 14:01N 40°39' W 074°05'0 0.0
2018-May-16 13:31N 40°39' W 074°05'0 0.0
2018-May-16 13:01N 40°39' W 074°05'0 0.0
2018-May-16 12:30N 40°39' W 074°05'0 0.0
2018-May-16 12:00N 40°39' W 074°05'0 0.0
2018-May-16 11:30N 40°39' W 074°05'0 0.0
2018-May-16 11:00N 40°39' W 074°05'0 0.0
2018-May-16 10:30N 40°39' W 074°05'0 0.0
2018-May-16 10:00N 40°39' W 074°05'0 0.0
2018-May-16 09:30N 40°39' W 074°05'0 0.0
2018-May-16 09:00N 40°39' W 074°05'0 0.0
2018-May-16 08:30N 40°39' W 074°05'0 0.4
2018-May-16 08:01N 40°39' W 074°06'0 0.4
2018-May-16 07:09N 40°39' W 074°06'0 0.0
2018-May-16 06:57N 40°39' W 074°06'0 0.0
2018-May-16 06:15N 40°39' W 074°06'0 0.0
2018-May-16 05:57N 40°39' W 074°06'0 0.0
2018-May-16 05:27N 40°39' W 074°06'0 0.0
2018-May-16 04:57N 40°39' W 074°06'0 0.0
2018-May-16 04:24N 40°39' W 074°06'0 0.0
2018-May-16 03:36N 40°39' W 074°06'0 0.0
2018-May-16 03:27N 40°39' W 074°06'0 0.0
2018-May-16 02:57N 40°39' W 074°06'0 0.0
2018-May-16 02:27N 40°39' W 074°06'0 0.0
2018-May-16 02:00N 40°39' W 074°06'0 0.0
2018-May-16 01:21N 40°39' W 074°06'0 0.0
2018-May-16 00:57N 40°39' W 074°06'0 0.0
2018-May-16 00:30N 40°39' W 074°06'0 0.0
2018-May-15 23:57N 40°39' W 074°06'0 0.0
2018-May-15 23:21N 40°39' W 074°06'0 0.0
2018-May-15 23:00N 40°39' W 074°06'0 0.0
2018-May-15 22:24N 40°39' W 074°06'0 0.0
2018-May-15 22:00N 40°39' W 074°06'0 0.0
2018-May-15 21:27N 40°39' W 074°06'0 0.0
2018-May-15 20:48N 40°39' W 074°06'0 0.0
2018-May-15 20:24N 40°39' W 074°06'0 0.0
2018-May-15 19:57N 40°39' W 074°06'0 0.0
2018-May-15 19:21N 40°39' W 074°06'0 0.0
2018-May-15 18:57N 40°39' W 074°06'0 0.0
2018-May-15 18:27N 40°39' W 074°06'0 0.0
2018-May-15 17:57N 40°39' W 074°06'0 0.0
2018-May-15 17:27N 40°39' W 074°06'0 0.0
2018-May-15 16:51N 40°39' W 074°06'0 0.0
2018-May-15 16:27N 40°39' W 074°06'0 0.0
2018-May-15 15:54N 40°39' W 074°06'0 0.0
2018-May-15 15:27N 40°39' W 074°06'0 0.0
2018-May-15 15:00N 40°39' W 074°06'1 2.6
2018-May-15 14:30N 40°39' W 074°04'1 2.5
2018-May-15 14:00N 40°39' W 074°03'0 0.0
2018-May-15 13:29N 40°39' W 074°03'0 0.0
2018-May-15 12:59N 40°39' W 074°03'0 0.1
2018-May-15 12:29N 40°39' W 074°03'0 0.0
2018-May-15 11:59N 40°39' W 074°03'0 0.0
2018-May-15 11:29N 40°39' W 074°03'0 0.1
2018-May-15 10:59N 40°39' W 074°03'0 0.0
2018-May-15 10:29N 40°39' W 074°03'0 0.2
2018-May-15 09:59N 40°39' W 074°03'0 0.2
2018-May-15 09:29N 40°39' W 074°03'0 0.1
2018-May-15 08:59N 40°39' W 074°03'0 0.1
2018-May-15 08:29N 40°39' W 074°03'0 0.0
2018-May-15 07:59N 40°39' W 074°03'0 0.0
2018-May-15 07:29N 40°39' W 074°03'0 0.0
2018-May-15 06:59N 40°39' W 074°03'0 0.0
2018-May-15 06:29N 40°39' W 074°03'0 0.1
2018-May-15 05:59N 40°39' W 074°03'0 0.0
2018-May-15 05:29N 40°39' W 074°03'0 0.0
2018-May-15 04:59N 40°39' W 074°03'0 0.0
2018-May-15 04:29N 40°39' W 074°03'0 0.0
2018-May-15 03:59N 40°39' W 074°03'0 0.3
2018-May-15 03:26N 40°39' W 074°03'0 0.2
2018-May-15 02:59N 40°39' W 074°03'0 0.0
2018-May-15 02:29N 40°39' W 074°03'0 0.0
2018-May-15 01:59N 40°39' W 074°03'0 0.0
2018-May-15 01:29N 40°39' W 074°03'0 0.0
2018-May-15 00:59N 40°39' W 074°03'0 0.0
2018-May-15 00:28N 40°39' W 074°03'0 0.0
2018-May-14 23:58N 40°39' W 074°03'0 0.0
2018-May-14 23:28N 40°39' W 074°03'0 0.1
2018-May-14 22:58N 40°39' W 074°03'0 0.0
2018-May-14 22:28N 40°39' W 074°03'0 0.0
2018-May-14 21:58N 40°39' W 074°03'0 0.1
2018-May-14 21:28N 40°39' W 074°03'0 0.2
2018-May-14 20:58N 40°39' W 074°03'0 0.2
2018-May-14 20:25N 40°39' W 074°03'0 0.1
2018-May-14 19:58N 40°39' W 074°03'0 0.0
2018-May-14 19:28N 40°39' W 074°03'0 0.0
2018-May-14 18:58N 40°39' W 074°03'0 0.0
2018-May-14 18:28N 40°39' W 074°03'0 0.0
2018-May-14 17:58N 40°39' W 074°03'0 0.1
2018-May-14 17:28N 40°39' W 074°03'0 0.0
2018-May-14 16:55N 40°39' W 074°03'0 0.0
2018-May-14 16:28N 40°39' W 074°03'0 0.1
2018-May-14 15:58N 40°39' W 074°03'0 0.0
2018-May-14 15:28N 40°39' W 074°03'0 0.1
2018-May-14 14:58N 40°39' W 074°03'0 0.2
2018-May-14 14:28N 40°39' W 074°03'0 0.1
2018-May-14 13:58N 40°39' W 074°03'0 0.1
2018-May-14 13:28N 40°39' W 074°03'0 0.0
2018-May-14 12:58N 40°39' W 074°03'0 0.0
2018-May-14 12:28N 40°39' W 074°03'0 0.0
2018-May-14 11:52N 40°39' W 074°03'0 0.0
2018-May-14 11:28N 40°39' W 074°03'0 0.0
2018-May-14 10:58N 40°39' W 074°03'0 0.0
2018-May-14 10:28N 40°39' W 074°03'0 0.0
2018-May-14 09:58N 40°39' W 074°03'0 0.2
2018-May-14 09:25N 40°39' W 074°03'0 0.2
2018-May-14 08:58N 40°39' W 074°03'0 0.0
2018-May-14 08:28N 40°39' W 074°03'0 0.1
2018-May-14 07:58N 40°39' W 074°03'0 0.0
2018-May-14 07:28N 40°39' W 074°03'0 0.0
2018-May-14 06:58N 40°39' W 074°03'0 0.0
2018-May-14 06:28N 40°39' W 074°03'0 0.0
2018-May-14 05:58N 40°39' W 074°03'0 0.0
2018-May-14 05:28N 40°39' W 074°03'0 0.0
2018-May-14 04:58N 40°39' W 074°03'0 0.0
2018-May-14 04:28N 40°39' W 074°03'0 0.1
2018-May-14 03:58N 40°39' W 074°03'0 0.0
2018-May-14 03:28N 40°39' W 074°03'0 0.1
2018-May-14 02:58N 40°39' W 074°03'0 0.3
2018-May-14 02:28N 40°39' W 074°03'0 0.1
2018-May-14 01:58N 40°39' W 074°03'0 0.0
2018-May-14 01:28N 40°39' W 074°03'0 0.0
2018-May-14 00:58N 40°39' W 074°03'0 0.0
2018-May-14 00:29N 40°39' W 074°03'1 1.3
2018-May-14 00:00N 40°39' W 074°03'1 2.5
2018-May-13 23:30N 40°39' W 074°05'0 0.0
2018-May-13 22:59N 40°39' W 074°05'0 0.0
2018-May-13 22:29N 40°39' W 074°05'0 0.0
2018-May-13 21:59N 40°39' W 074°05'0 0.0
2018-May-13 21:20N 40°39' W 074°05'0 0.0
2018-May-13 20:41N 40°39' W 074°05'0 0.0
2018-May-13 19:59N 40°39' W 074°05'0 0.0
2018-May-13 19:20N 40°39' W 074°05'0 0.0
2018-May-13 18:56N 40°39' W 074°05'0 0.0
2018-May-13 18:26N 40°39' W 074°05'0 0.0
2018-May-13 17:59N 40°39' W 074°05'0 0.0
2018-May-13 17:20N 40°39' W 074°05'0 0.0
2018-May-13 16:56N 40°39' W 074°05'0 0.0
2018-May-13 16:23N 40°39' W 074°05'0 0.0
2018-May-13 15:17N 40°39' W 074°05'0 0.0
2018-May-13 14:59N 40°39' W 074°05'0 0.0
2018-May-13 14:29N 40°39' W 074°05'0 0.0
2018-May-13 13:59N 40°39' W 074°05'0 0.0
2018-May-13 13:29N 40°39' W 074°05'0 0.0
2018-May-13 12:59N 40°39' W 074°05'0 0.0
2018-May-13 12:28N 40°39' W 074°05'0 0.0
2018-May-13 11:58N 40°39' W 074°05'0 0.0
2018-May-13 11:28N 40°39' W 074°05'0 0.0
2018-May-13 10:58N 40°39' W 074°05'0 0.0
2018-May-13 10:28N 40°39' W 074°05'0 0.0
2018-May-13 09:58N 40°39' W 074°05'0 0.0
2018-May-13 09:28N 40°39' W 074°05'0 0.0
2018-May-13 07:31N 40°39' W 074°05'0 0.0
2018-May-13 07:07N 40°39' W 074°05'0 0.0
2018-May-13 06:49N 40°39' W 074°05'0 0.0
2018-May-13 06:25N 40°39' W 074°05'0 0.0
2018-May-13 05:25N 40°39' W 074°05'0 0.0
2018-May-13 04:58N 40°39' W 074°05'0 0.0
2018-May-13 04:28N 40°39' W 074°05'0 0.0
2018-May-13 03:58N 40°39' W 074°05'0 0.0
2018-May-13 03:25N 40°39' W 074°05'0 0.0
2018-May-13 02:58N 40°39' W 074°05'0 0.0
2018-May-13 02:16N 40°39' W 074°05'0 0.0
2018-May-13 01:52N 40°39' W 074°05'0 0.0
2018-May-13 01:28N 40°39' W 074°05'0 0.0
2018-May-13 00:58N 40°39' W 074°05'0 0.0
2018-May-13 00:28N 40°39' W 074°05'0 0.0
2018-May-12 23:58N 40°39' W 074°05'0 0.0
2018-May-12 23:28N 40°39' W 074°05'0 0.0
2018-May-12 22:55N 40°39' W 074°05'0 0.0
2018-May-12 22:28N 40°39' W 074°05'0 0.0
2018-May-12 21:34N 40°39' W 074°05'0 0.0
2018-May-12 21:25N 40°39' W 074°05'0 0.0
2018-May-12 20:58N 40°39' W 074°05'0 0.0
2018-May-12 20:25N 40°39' W 074°05'0 0.0
2018-May-12 19:52N 40°39' W 074°05'  

Dump ship's entire track history